• Join FlightAware (Why Join?)
  • Login
  • US Flag 
07:43PM EDT


 

Airport Tracker/Info


-or-


 

Live Flight TrackerFlight Track Log ✈ UPS1131 ✈ 19-Jun-2013 ✈ KBUF - KPHL

Flight Track Log - Related Links

Times and Time Zones

All times are in EDT time to prevent confusion due to time zone crossing. See the UPS1131 flight status page for this flight to view local times or setup timezone preferences in your user account.

Time Position Orientation Groundspeed Altitude Reporting Facility
EDT Latitude Longitude Course Direction KTS MPH feet Rate Location/Type
11:24PM 42.9630 -78.7000 43° Northeast 171 197 2,300  Level FlightAware
11:25PM 42.9710 -78.6850 54° Northeast 203 234 2,500 2,460 Climbing FlightAware
11:25PM 42.9460 -78.6490 133° Southeast 236 272 4,600 3,600 Climbing FlightAware
11:26PM 42.9280 -78.6490 180° South 235 270 5,900 3,600 Climbing FlightAware
11:26PM 42.9020 -78.6480 178° South 264 304 6,900 3,240 Climbing FlightAware
11:27PM 42.8670 -78.6470 179° South 273 314 8,600 3,120 Climbing FlightAware
11:27PM 42.8050 -78.6460 179° South 319 367 10,800 2,460 Climbing FlightAware
11:28PM 42.7340 -78.6450 179° South 370 426 12,300 2,640 Climbing FlightAware
11:29PM 42.6690 -78.6410 177° South 376 433 14,600 3,120 Climbing FlightAware
11:29PM 42.5940 -78.6310 174° South 409 471 16,500 3,060 Climbing FlightAware
11:30PM 42.5120 -78.6010 165° South 418 481 18,900 2,580 Climbing FlightAware
11:31PM 42.4270 -78.5690 164° South 450 518 20,300 2,640 Climbing FlightAware
11:31PM 42.3450 -78.5380 164° South 456 525 22,600 3,720 Climbing FlightAware
11:32PM 42.2670 -78.5070 164° South 447 514 25,300 3,120 Climbing FlightAware
11:33PM 42.1830 -78.4750 164° South 462 532 26,900 1,200 Climbing FlightAware
11:34PM 42.0930 -78.4400 164° South 492 566 27,000 60 Climbing FlightAware
11:34PM 41.9960 -78.4020 164° South 496 571 27,000  Level FlightAware
11:35PM 41.9260 -78.3750 164° South 492 566 27,000  Level FlightAware
11:36PM 41.8300 -78.3390 164° South 489 563 27,000  Level FlightAware
11:36PM 41.7300 -78.3000 164° South 488 562 27,000  Level FlightAware
11:37PM 41.6430 -78.2670 164° South 487 560 27,000  Level FlightAware
11:38PM 41.5480 -78.2310 164° South 487 560 27,000  Level FlightAware
11:38PM 41.4600 -78.1980 164° South 487 560 27,000  Level FlightAware
11:39PM 41.3750 -78.1660 164° South 487 560 27,000  Level FlightAware
11:40PM 41.2420 -78.1160 164° South 488 562 27,000  Level FlightAware
11:41PM 41.1590 -78.0750 160° South 493 567 27,000  Level FlightAware
11:41PM 41.0910 -77.9930 138° Southeast 492 566 27,000  Level FlightAware
11:42PM 41.0260 -77.8460 120° Southeast 491 565 27,000  Level FlightAware
11:43PM 40.9770 -77.7330 120° Southeast 492 566 27,000  Level FlightAware
11:44PM 40.9270 -77.6180 120° Southeast 493 567 27,000  Level FlightAware
11:45PM 40.8850 -77.5220 120° Southeast 492 566 27,000  Level FlightAware
11:45PM 40.8450 -77.4330 121° Southeast 494 568 27,000  Level FlightAware
11:46PM 40.7940 -77.3160 120° Southeast 494 568 27,000  Level FlightAware
11:47PM 40.7400 -77.1950 120° Southeast 494 568 27,000  Level FlightAware
11:47PM 40.7086 -77.1239 120° Southeast 494 568 27,000  Level FlightAware ADS-B
11:47PM 40.6732 -77.0445 120° Southeast 494 568 27,000  Level FlightAware ADS-B
11:48PM 40.6384 -76.9667 120° Southeast 495 570 27,000  Level FlightAware ADS-B
11:48PM 40.6016 -76.8846 121° Southeast 495 570 27,000 -240 Level FlightAware ADS-B
11:49PM 40.5638 -76.8003 121° Southeast 488 562 26,800 -1,080 Descending FlightAware ADS-B
11:50PM 40.5299 -76.7250 121° Southeast 474 545 25,900 -2,100 Descending FlightAware ADS-B
11:50PM 40.4955 -76.6490 121° Southeast 464 534 24,700 -2,400 Descending FlightAware ADS-B
11:51PM 40.4629 -76.5770 121° Southeast 455 524 23,500 -2,340 Descending FlightAware ADS-B
11:51PM 40.4308 -76.5061 121° Southeast 448 516 22,400 -2,340 Descending FlightAware ADS-B
11:52PM 40.3988 -76.4356 121° Southeast 440 506 21,200 -2,400 Descending FlightAware ADS-B
11:52PM 40.3666 -76.3649 121° Southeast 428 493 20,000 -2,460 Descending FlightAware ADS-B
11:53PM 40.3360 -76.2981 121° Southeast 422 486 18,700 -2,520 Descending FlightAware ADS-B
11:53PM 40.3047 -76.2298 121° Southeast 415 478 17,400 -2,340 Descending FlightAware ADS-B
11:54PM 40.2749 -76.1648 121° Southeast 405 466 16,300 -2,280 Descending FlightAware ADS-B
11:54PM 40.2442 -76.0977 121° Southeast 395 455 15,100 -2,340 Descending FlightAware ADS-B
11:55PM 40.2155 -76.0356 121° Southeast 386 444 13,900 -2,340 Descending FlightAware ADS-B
11:55PM 40.1874 -75.9745 121° Southeast 378 435 12,700 -2,280 Descending FlightAware ADS-B
11:56PM 40.1602 -75.9154 121° Southeast 371 427 11,600 -2,220 Descending FlightAware ADS-B
11:56PM 40.1338 -75.8584 121° Southeast 362 417 10,500 -1,980 Descending FlightAware ADS-B
11:56PM 40.1173 -75.8226 121° Southeast 350 403 10,000 -1,200 Descending FlightAware ADS-B
11:57PM 40.1044 -75.7949 121° Southeast 354 407 9,800 -540 Descending FlightAware ADS-B
11:57PM 40.0979 -75.7808 121° Southeast 356 410 9,800  Level FlightAware ADS-B
11:57PM 40.0927 -75.7678 118° Southeast 355 409 9,800  Level FlightAware ADS-B
11:57PM 40.0906 -75.7620 115° Southeast 352 405 9,800  Level FlightAware ADS-B
11:57PM 40.0888 -75.7560 111° Southeast 347 399 9,800  Level FlightAware ADS-B
11:57PM 40.0859 -75.7446 108° East 338 389 9,800  Level FlightAware ADS-B
11:57PM 40.0838 -75.7339 104° East 331 381 9,800  Level FlightAware ADS-B
11:57PM 40.0828 -75.7276 102° East 327 376 9,800  Level FlightAware ADS-B
11:57PM 40.0813 -75.7132 98° East 318 366 9,800  Level FlightAware ADS-B
11:58PM 40.0801 -75.6973 96° East 309 356 9,800  Level FlightAware ADS-B
11:58PM 40.0787 -75.6689 94° East 300 345 9,800  Level FlightAware ADS-B
11:58PM 40.0775 -75.6417 93° East 299 344 9,800  Level FlightAware ADS-B
11:58PM 40.0763 -75.6142 93° East 300 345 9,800  Level FlightAware ADS-B
11:59PM 40.0749 -75.5854 94° East 300 345 9,800 -240 Level FlightAware ADS-B
11:59PM 40.0736 -75.5583 94° East 295 339 9,700 -1,440 Descending FlightAware ADS-B
11:59PM 40.0724 -75.5317 93° East 294 338 9,100 -2,400 Descending FlightAware ADS-B
11:59PM 40.0710 -75.5044 94° East 292 336 8,500 -2,640 Descending FlightAware ADS-B
12:00AM 40.0697 -75.4777 94° East 290 334 7,800 -2,820 Descending FlightAware ADS-B
12:00AM 40.0684 -75.4512 94° East 287 330 7,100 -2,820 Descending FlightAware ADS-B
12:00AM 40.0672 -75.4255 93° East 282 325 6,400 -2,520 Descending FlightAware ADS-B
12:00AM 40.0659 -75.3997 94° East 276 318 5,800 -2,520 Descending FlightAware ADS-B
12:01AM 40.0647 -75.3743 94° East 272 313 5,100 -2,520 Descending FlightAware ADS-B
12:01AM 40.0635 -75.3489 94° East 271 312 4,500 -2,340 Descending FlightAware ADS-B
12:01AM 40.0623 -75.3243 94° East 266 306 3,900 -2,220 Descending FlightAware ADS-B
12:01AM 40.0611 -75.3000 94° East 269 310 3,400 -2,040 Descending FlightAware ADS-B
12:02AM 40.0600 -75.2805 94° East 267 307 3,000 -1,620 Descending FlightAware ADS-B
12:02AM 40.0595 -75.2757 98° East 267 307 3,000 -900 Level FlightAware ADS-B
12:02AM 40.0585 -75.2700 103° East 268 308 2,900 -1,740 Descending FlightAware ADS-B
12:02AM 40.0571 -75.2645 108° East 267 307 2,800 -900 Descending FlightAware ADS-B
12:02AM 40.0550 -75.2589 116° Southeast 268 308 2,800  Level FlightAware ADS-B
12:02AM 40.0531 -75.2548 121° Southeast 268 308 2,800  Level FlightAware ADS-B
12:02AM 40.0491 -75.2477 126° Southeast 268 308 2,800  Level FlightAware ADS-B
12:02AM 40.0440 -75.2397 130° Southeast 267 307 2,800  Level FlightAware ADS-B
12:02AM 40.0408 -75.2352 133° Southeast 266 306 2,800  Level FlightAware ADS-B
12:02AM 40.0346 -75.2273 136° Southeast 266 306 2,800  Level FlightAware ADS-B
12:02AM 40.0246 -75.2153 137° Southeast 267 307 2,800  Level FlightAware ADS-B
12:03AM 40.0111 -75.1979 135° Southeast 263 303 2,800  Level FlightAware ADS-B
12:03AM 39.9984 -75.1810 134° Southeast 246 283 2,800  Level FlightAware ADS-B
12:03AM 39.9866 -75.1651 134° Southeast 231 266 2,800  Level FlightAware ADS-B
12:03AM 39.9779 -75.1536 135° Southeast 221 254 2,800  Level FlightAware ADS-B
12:04AM 39.9675 -75.1397 134° Southeast 209 241 2,800  Level FlightAware ADS-B
12:04AM 39.9618 -75.1323 135° Southeast 199 229 2,800  Level FlightAware ADS-B
12:04AM 39.9516 -75.1223 143° Southeast 183 211 2,800  Level FlightAware ADS-B
12:04AM 39.9462 -75.1180 149° Southeast 176 203 2,800  Level FlightAware ADS-B
12:04AM 39.9439 -75.1165 153° Southeast 172 198 2,800 -780 Level FlightAware ADS-B
12:04AM 39.9403 -75.1146 158° South 164 189 2,700 -720 Descending FlightAware ADS-B
12:04AM 39.9374 -75.1137 167° South 157 181 2,700  Level FlightAware ADS-B
12:04AM 39.9346 -75.1132 172° South 155 178 2,700 -720 Level FlightAware ADS-B
12:05AM 39.9313 -75.1130 177° South 156 180 2,600 -1,440 Descending FlightAware ADS-B
12:05AM 39.9256 -75.1133 182° South 160 184 2,400 -1,440 Descending FlightAware ADS-B
12:05AM 39.9217 -75.1139 187° South 158 182 2,300 -1,080 Descending FlightAware ADS-B
12:05AM 39.9133 -75.1156 189° South 154 177 2,100 -1,020 Descending FlightAware ADS-B
12:05AM 39.9087 -75.1165 189° South 153 176 2,000 -1,020 Descending FlightAware ADS-B
12:05AM 39.9046 -75.1176 192° South 149 171 1,900 -600 Descending FlightAware ADS-B
12:05AM 39.9023 -75.1187 200° South 144 166 1,900 -780 Level FlightAware ADS-B
12:05AM 39.8999 -75.1206 211° Southwest 141 162 1,800 -780 Descending FlightAware ADS-B
12:05AM 39.8979 -75.1227 219° Southwest 136 157 1,800 -720 Level FlightAware ADS-B
12:05AM 39.8960 -75.1252 225° Southwest 130 150 1,700 -780 Descending FlightAware ADS-B
12:05AM 39.8947 -75.1273 231° Southwest 128 147 1,700 -900 Level FlightAware ADS-B
12:06AM 39.8934 -75.1295 232° Southwest 126 145 1,600 -600 Descending FlightAware ADS-B
12:06AM 39.8915 -75.1332 236° Southwest 122 140 1,600 -720 Level FlightAware ADS-B
12:06AM 39.8905 -75.1356 241° Southwest 122 140 1,500 -1,740 Descending FlightAware ADS-B
12:06AM 39.8895 -75.1382 243° Southwest 122 140 1,400 -1,200 Descending FlightAware ADS-B
12:06AM 39.8883 -75.1423 249° West 120 138 1,300 -840 Descending FlightAware ADS-B
12:06AM 39.8866 -75.1484 250° West 117 135 1,200 -660 Descending FlightAware ADS-B
12:06AM 39.8850 -75.1551 253° West 116 133 1,100 -480 Descending FlightAware ADS-B
12:06AM 39.8827 -75.1653 254° West 117 135 1,000 -600 Descending FlightAware ADS-B
12:07AM 39.8821 -75.1690 258° West 117 135 900 -720 Descending FlightAware ADS-B
12:07AM 39.8803 -75.1778 255° West 116 133 800 -600 Descending FlightAware ADS-B
12:07AM 39.8793 -75.1830 256° West 114 131 700 -720 Descending FlightAware ADS-B
12:07AM 39.8780 -75.1897 256° West 113 130 600 -480 Descending FlightAware ADS-B
12:07AM 39.8774 -75.1927 255° West 112 129 600 -540 Level FlightAware ADS-B
12:07AM 39.8765 -75.1974 256° West 113 130 500 -840 Descending FlightAware ADS-B
12:07AM 39.8744 -75.2074 255° West 113 130 300 -660 Descending FlightAware ADS-B
12:08AM 39.8725 -75.2169 255° West 113 130 200 -480 Descending FlightAware ADS-B
12:15AM 39.8667 -75.2333 218° Southwest  Level FlightAware Approximate
12:16AM 39.8722 -75.2409 218° Southwest  Level Estimated
12:17AM 39.8722 -75.2409 218° Southwest  Level Estimated